Flight Number: EUR3071 Duration: 12:00
Departure: Rio de Janeiro (SBGL) at 18:30 Distance: 4985 Nm
Arrival: Gatwick Airport (EGKK) at 06:30 Equipment: A340

Weather Information
Galeao, Brazil (SBGL) 22-49S 043-15W 42M Oct 19, 2018 - 02:00 PM EDT / 2018.10.19 1800 UTC
Wind: from the SW (220 degrees) at 12 MPH (10 KT):0
Visibility: greater than 7 mile(s):0
Sky conditions: mostly cloudy Temperature: 78 F (26 C) Dew Point: 69 F (21 C) Relative Humidity: 73% Pressure (altimeter): 29.83 in. Hg (1010 hPa)
ob: SBGL 191800Z 22010KT 9999 FEW020 BKN030 BKN050 26/21 Q1010 cycle: 18
Sunrise: 08:19 Sunset: 20:56 (UTC)

London / Gatwick Airport, United Kingdom (EGKK) 51-09N 000-11W 0M Oct 19, 2018 - 02:20 PM EDT / 2018.10.19 1820 UTC
Wind: Variable at 2 MPH (2 KT):0
Visibility: greater than 7 mile(s):0 Temperature: 51 F (11 C) Dew Point: 44 F (7 C) Relative Humidity: 76% Pressure (altimeter): 30.33 in. Hg (1027 hPa)
ob: EGKK 191820Z VRB02KT CAVOK 11/07 Q1027 cycle: 18
Sunrise: 06:35 Sunset: 16:55 (UTC)

TAF:2018/10/19 18:12 TAF EGKK 191707Z 1918/2024 34004KT CAVOK BECMG 1922/2001 6000 PROB30 2001/2009 0500 FG VV/// BECMG 2009/2012 CAVOK BECMG 2021/2024 5000 HZ

Previous Pireps for this route
Date Aircraft Flight time Fuel used Landing rate On time
2015-06-23B74710.31283502-12Charter
2015-06-26B74711.46301897-93Charter
(pireps marked green are flown by you)

Route map